sensor_id;sensor_type;location;lat;lon;timestamp;P1;durP1;ratioP1;P2;durP2;ratioP2
19024;SDS011;9645;51.448;6.260;2023-08-06T00:02:27;8.00;;;3.17;;
19024;SDS011;9645;51.448;6.260;2023-08-06T00:04:54;4.30;;;2.63;;
19024;SDS011;9645;51.448;6.260;2023-08-06T00:07:21;6.50;;;3.10;;
19024;SDS011;9645;51.448;6.260;2023-08-06T00:09:48;7.83;;;3.10;;
19024;SDS011;9645;51.448;6.260;2023-08-06T00:12:15;6.67;;;2.80;;
19024;SDS011;9645;51.448;6.260;2023-08-06T00:14:43;4.67;;;3.20;;
19024;SDS011;9645;51.448;6.260;2023-08-06T00:17:10;6.83;;;3.50;;
19024;SDS011;9645;51.448;6.260;2023-08-06T00:19:39;5.53;;;3.00;;
19024;SDS011;9645;51.448;6.260;2023-08-06T00:22:06;6.37;;;2.67;;
19024;SDS011;9645;51.448;6.260;2023-08-06T00:24:33;6.40;;;3.50;;
19024;SDS011;9645;51.448;6.260;2023-08-06T00:27:01;4.87;;;3.00;;
19024;SDS011;9645;51.448;6.260;2023-08-06T00:29:28;4.60;;;3.17;;
19024;SDS011;9645;51.448;6.260;2023-08-06T00:31:55;5.60;;;3.10;;
19024;SDS011;9645;51.448;6.260;2023-08-06T00:34:22;3.33;;;2.80;;
19024;SDS011;9645;51.448;6.260;2023-08-06T00:36:51;5.27;;;3.13;;
19024;SDS011;9645;51.448;6.260;2023-08-06T00:39:18;3.67;;;3.00;;
19024;SDS011;9645;51.448;6.260;2023-08-06T00:41:45;4.90;;;3.03;;
19024;SDS011;9645;51.448;6.260;2023-08-06T00:44:13;3.77;;;2.70;;
19024;SDS011;9645;51.448;6.260;2023-08-06T00:46:40;4.47;;;2.80;;
19024;SDS011;9645;51.448;6.260;2023-08-06T00:49:07;3.73;;;2.83;;
19024;SDS011;9645;51.448;6.260;2023-08-06T00:51:34;5.00;;;2.70;;
19024;SDS011;9645;51.448;6.260;2023-08-06T00:54:03;3.27;;;2.40;;
19024;SDS011;9645;51.448;6.260;2023-08-06T00:56:30;3.60;;;2.73;;
19024;SDS011;9645;51.448;6.260;2023-08-06T00:58:59;7.47;;;3.40;;
19024;SDS011;9645;51.448;6.260;2023-08-06T01:01:26;8.93;;;3.47;;
19024;SDS011;9645;51.448;6.260;2023-08-06T01:03:53;6.67;;;3.00;;
19024;SDS011;9645;51.448;6.260;2023-08-06T01:06:23;7.63;;;3.47;;
19024;SDS011;9645;51.448;6.260;2023-08-06T01:09:01;3.70;;;3.20;;
19024;SDS011;9645;51.448;6.260;2023-08-06T01:11:44;5.17;;;3.00;;
19024;SDS011;9645;51.448;6.260;2023-08-06T01:14:21;6.53;;;2.97;;
19024;SDS011;9645;51.448;6.260;2023-08-06T01:16:54;5.53;;;3.20;;
19024;SDS011;9645;51.448;6.260;2023-08-06T01:19:21;6.30;;;3.63;;
19024;SDS011;9645;51.448;6.260;2023-08-06T01:21:50;7.87;;;3.13;;
19024;SDS011;9645;51.448;6.260;2023-08-06T01:24:17;7.27;;;3.50;;
19024;SDS011;9645;51.448;6.260;2023-08-06T01:26:45;7.53;;;3.40;;
19024;SDS011;9645;51.448;6.260;2023-08-06T01:29:31;5.70;;;3.90;;
19024;SDS011;9645;51.448;6.260;2023-08-06T01:32:01;8.57;;;3.30;;
19024;SDS011;9645;51.448;6.260;2023-08-06T01:34:30;6.00;;;4.10;;
19024;SDS011;9645;51.448;6.260;2023-08-06T01:37:01;4.20;;;3.47;;
19024;SDS011;9645;51.448;6.260;2023-08-06T01:39:29;7.17;;;3.87;;
19024;SDS011;9645;51.448;6.260;2023-08-06T01:41:57;5.20;;;3.70;;
19024;SDS011;9645;51.448;6.260;2023-08-06T01:44:24;8.70;;;3.90;;
19024;SDS011;9645;51.448;6.260;2023-08-06T01:46:51;4.30;;;3.33;;
19024;SDS011;9645;51.448;6.260;2023-08-06T01:49:18;9.33;;;2.67;;
19024;SDS011;9645;51.448;6.260;2023-08-06T01:51:45;4.50;;;3.10;;
19024;SDS011;9645;51.448;6.260;2023-08-06T01:54:14;7.03;;;3.43;;
19024;SDS011;9645;51.448;6.260;2023-08-06T01:56:41;8.73;;;3.37;;
19024;SDS011;9645;51.448;6.260;2023-08-06T01:59:08;3.70;;;2.87;;
19024;SDS011;9645;51.448;6.260;2023-08-06T02:01:35;3.33;;;2.90;;
19024;SDS011;9645;51.448;6.260;2023-08-06T02:04:02;3.77;;;2.93;;
19024;SDS011;9645;51.448;6.260;2023-08-06T02:06:30;5.10;;;2.80;;
19024;SDS011;9645;51.448;6.260;2023-08-06T02:08:56;4.50;;;2.57;;
19024;SDS011;9645;51.448;6.260;2023-08-06T02:11:25;5.20;;;2.80;;
19024;SDS011;9645;51.448;6.260;2023-08-06T02:13:52;7.40;;;2.87;;
19024;SDS011;9645;51.448;6.260;2023-08-06T02:16:20;3.80;;;2.50;;
19024;SDS011;9645;51.448;6.260;2023-08-06T02:18:47;5.70;;;2.80;;
19024;SDS011;9645;51.448;6.260;2023-08-06T02:21:15;6.67;;;3.03;;
19024;SDS011;9645;51.448;6.260;2023-08-06T02:23:42;4.37;;;2.77;;
19024;SDS011;9645;51.448;6.260;2023-08-06T02:26:09;4.30;;;3.40;;
19024;SDS011;9645;51.448;6.260;2023-08-06T02:28:37;3.77;;;2.87;;
19024;SDS011;9645;51.448;6.260;2023-08-06T02:31:04;4.80;;;2.53;;
19024;SDS011;9645;51.448;6.260;2023-08-06T02:33:32;5.43;;;3.00;;
19024;SDS011;9645;51.448;6.260;2023-08-06T02:36:00;4.90;;;2.93;;
19024;SDS011;9645;51.448;6.260;2023-08-06T02:38:28;5.40;;;3.00;;
19024;SDS011;9645;51.448;6.260;2023-08-06T02:40:55;6.00;;;2.83;;
19024;SDS011;9645;51.448;6.260;2023-08-06T02:43:22;4.80;;;2.30;;
19024;SDS011;9645;51.448;6.260;2023-08-06T02:45:51;4.63;;;3.47;;
19024;SDS011;9645;51.448;6.260;2023-08-06T02:48:18;4.90;;;3.00;;
19024;SDS011;9645;51.448;6.260;2023-08-06T02:50:45;9.40;;;3.40;;
19024;SDS011;9645;51.448;6.260;2023-08-06T02:53:12;3.80;;;2.90;;
19024;SDS011;9645;51.448;6.260;2023-08-06T02:55:44;5.13;;;2.73;;
19024;SDS011;9645;51.448;6.260;2023-08-06T02:58:12;4.40;;;2.50;;
19024;SDS011;9645;51.448;6.260;2023-08-06T03:00:40;5.37;;;3.40;;
19024;SDS011;9645;51.448;6.260;2023-08-06T03:03:08;7.53;;;2.90;;
19024;SDS011;9645;51.448;6.260;2023-08-06T03:05:35;7.17;;;3.53;;
19024;SDS011;9645;51.448;6.260;2023-08-06T03:08:02;6.07;;;3.30;;
19024;SDS011;9645;51.448;6.260;2023-08-06T03:10:30;12.10;;;3.80;;
19024;SDS011;9645;51.448;6.260;2023-08-06T03:12:57;11.47;;;3.87;;
19024;SDS011;9645;51.448;6.260;2023-08-06T03:15:24;5.50;;;3.27;;
19024;SDS011;9645;51.448;6.260;2023-08-06T03:17:51;4.83;;;3.40;;
19024;SDS011;9645;51.448;6.260;2023-08-06T03:20:19;5.23;;;3.00;;
19024;SDS011;9645;51.448;6.260;2023-08-06T03:22:46;4.73;;;2.90;;
19024;SDS011;9645;51.448;6.260;2023-08-06T03:25:13;6.47;;;3.07;;
19024;SDS011;9645;51.448;6.260;2023-08-06T03:27:40;4.80;;;3.03;;
19024;SDS011;9645;51.448;6.260;2023-08-06T03:30:08;4.23;;;2.60;;
19024;SDS011;9645;51.448;6.260;2023-08-06T03:32:35;18.17;;;3.33;;
19024;SDS011;9645;51.448;6.260;2023-08-06T03:35:02;4.97;;;3.23;;
19024;SDS011;9645;51.448;6.260;2023-08-06T03:37:31;5.60;;;3.10;;
19024;SDS011;9645;51.448;6.260;2023-08-06T03:39:58;3.70;;;2.83;;
19024;SDS011;9645;51.448;6.260;2023-08-06T03:42:25;5.90;;;2.50;;
19024;SDS011;9645;51.448;6.260;2023-08-06T03:44:52;3.73;;;2.20;;
19024;SDS011;9645;51.448;6.260;2023-08-06T03:47:19;5.10;;;2.70;;
19024;SDS011;9645;51.448;6.260;2023-08-06T03:49:46;2.37;;;1.93;;
19024;SDS011;9645;51.448;6.260;2023-08-06T03:52:14;7.70;;;2.17;;
19024;SDS011;9645;51.448;6.260;2023-08-06T03:54:43;2.93;;;2.20;;
19024;SDS011;9645;51.448;6.260;2023-08-06T03:57:10;8.30;;;2.23;;
19024;SDS011;9645;51.448;6.260;2023-08-06T03:59:37;3.00;;;1.73;;
19024;SDS011;9645;51.448;6.260;2023-08-06T04:02:04;3.23;;;2.13;;
19024;SDS011;9645;51.448;6.260;2023-08-06T04:04:31;6.20;;;2.23;;
19024;SDS011;9645;51.448;6.260;2023-08-06T04:06:58;2.80;;;1.70;;
19024;SDS011;9645;51.448;6.260;2023-08-06T04:09:27;5.63;;;2.10;;
19024;SDS011;9645;51.448;6.260;2023-08-06T04:11:56;4.20;;;1.90;;
19024;SDS011;9645;51.448;6.260;2023-08-06T04:14:24;2.83;;;1.87;;
19024;SDS011;9645;51.448;6.260;2023-08-06T04:16:52;1.80;;;1.50;;
19024;SDS011;9645;51.448;6.260;2023-08-06T04:19:19;2.97;;;1.73;;
19024;SDS011;9645;51.448;6.260;2023-08-06T04:21:46;2.40;;;2.13;;
19024;SDS011;9645;51.448;6.260;2023-08-06T04:24:13;3.37;;;1.67;;
19024;SDS011;9645;51.448;6.260;2023-08-06T04:26:40;5.30;;;1.70;;
19024;SDS011;9645;51.448;6.260;2023-08-06T04:29:08;1.73;;;1.63;;
19024;SDS011;9645;51.448;6.260;2023-08-06T04:31:35;2.00;;;1.60;;
19024;SDS011;9645;51.448;6.260;2023-08-06T04:34:02;3.90;;;1.93;;
19024;SDS011;9645;51.448;6.260;2023-08-06T04:36:29;3.83;;;2.13;;
19024;SDS011;9645;51.448;6.260;2023-08-06T04:38:56;1.70;;;1.57;;
19024;SDS011;9645;51.448;6.260;2023-08-06T04:41:23;2.23;;;1.50;;
19024;SDS011;9645;51.448;6.260;2023-08-06T04:43:51;2.97;;;1.60;;
19024;SDS011;9645;51.448;6.260;2023-08-06T04:46:19;3.20;;;1.87;;
19024;SDS011;9645;51.448;6.260;2023-08-06T04:48:46;2.90;;;2.17;;
19024;SDS011;9645;51.448;6.260;2023-08-06T04:51:13;6.53;;;2.23;;
19024;SDS011;9645;51.448;6.260;2023-08-06T04:53:40;4.47;;;2.33;;
19024;SDS011;9645;51.448;6.260;2023-08-06T04:56:08;6.03;;;2.00;;
19024;SDS011;9645;51.448;6.260;2023-08-06T04:58:35;3.20;;;1.60;;
19024;SDS011;9645;51.448;6.260;2023-08-06T05:01:02;3.17;;;2.10;;
19024;SDS011;9645;51.448;6.260;2023-08-06T05:03:30;3.00;;;2.17;;
19024;SDS011;9645;51.448;6.260;2023-08-06T05:05:57;4.13;;;2.20;;
19024;SDS011;9645;51.448;6.260;2023-08-06T05:08:24;3.00;;;2.00;;
19024;SDS011;9645;51.448;6.260;2023-08-06T05:10:51;3.90;;;1.90;;
19024;SDS011;9645;51.448;6.260;2023-08-06T05:13:18;2.57;;;2.33;;
19024;SDS011;9645;51.448;6.260;2023-08-06T05:15:45;2.27;;;1.90;;
19024;SDS011;9645;51.448;6.260;2023-08-06T05:18:12;3.70;;;1.97;;
19024;SDS011;9645;51.448;6.260;2023-08-06T05:20:41;2.03;;;1.83;;
19024;SDS011;9645;51.448;6.260;2023-08-06T05:23:09;3.27;;;2.07;;
19024;SDS011;9645;51.448;6.260;2023-08-06T05:25:36;2.50;;;1.90;;
19024;SDS011;9645;51.448;6.260;2023-08-06T05:28:04;1.90;;;1.77;;
19024;SDS011;9645;51.448;6.260;2023-08-06T05:30:31;2.63;;;2.10;;
19024;SDS011;9645;51.448;6.260;2023-08-06T05:32:58;2.27;;;2.07;;
19024;SDS011;9645;51.448;6.260;2023-08-06T05:35:25;6.40;;;2.60;;
19024;SDS011;9645;51.448;6.260;2023-08-06T05:37:54;3.60;;;2.10;;
19024;SDS011;9645;51.448;6.260;2023-08-06T05:40:20;4.57;;;2.50;;
19024;SDS011;9645;51.448;6.260;2023-08-06T05:42:49;2.87;;;1.97;;
19024;SDS011;9645;51.448;6.260;2023-08-06T05:45:16;6.03;;;1.90;;
19024;SDS011;9645;51.448;6.260;2023-08-06T05:47:44;5.53;;;1.90;;
19024;SDS011;9645;51.448;6.260;2023-08-06T05:50:10;3.57;;;2.13;;
19024;SDS011;9645;51.448;6.260;2023-08-06T05:52:37;4.43;;;1.70;;
19024;SDS011;9645;51.448;6.260;2023-08-06T05:55:07;3.97;;;2.00;;
19024;SDS011;9645;51.448;6.260;2023-08-06T05:57:34;2.03;;;1.87;;
19024;SDS011;9645;51.448;6.260;2023-08-06T06:00:01;6.03;;;2.37;;
19024;SDS011;9645;51.448;6.260;2023-08-06T06:02:31;2.57;;;2.07;;
19024;SDS011;9645;51.448;6.260;2023-08-06T06:04:58;2.13;;;1.93;;
19024;SDS011;9645;51.448;6.260;2023-08-06T06:07:25;5.30;;;1.73;;
19024;SDS011;9645;51.448;6.260;2023-08-06T06:09:53;2.67;;;2.00;;
19024;SDS011;9645;51.448;6.260;2023-08-06T06:12:21;2.83;;;2.00;;
19024;SDS011;9645;51.448;6.260;2023-08-06T06:14:50;3.47;;;2.30;;
19024;SDS011;9645;51.448;6.260;2023-08-06T06:17:18;2.13;;;1.80;;
19024;SDS011;9645;51.448;6.260;2023-08-06T06:19:44;1.77;;;1.60;;
19024;SDS011;9645;51.448;6.260;2023-08-06T06:22:12;8.00;;;2.70;;
19024;SDS011;9645;51.448;6.260;2023-08-06T06:24:39;6.23;;;1.90;;
19024;SDS011;9645;51.448;6.260;2023-08-06T06:27:06;5.07;;;2.20;;
19024;SDS011;9645;51.448;6.260;2023-08-06T06:29:34;2.83;;;2.00;;
19024;SDS011;9645;51.448;6.260;2023-08-06T06:32:01;1.60;;;1.50;;
19024;SDS011;9645;51.448;6.260;2023-08-06T06:34:28;1.67;;;1.57;;
19024;SDS011;9645;51.448;6.260;2023-08-06T06:36:56;2.47;;;1.40;;
19024;SDS011;9645;51.448;6.260;2023-08-06T06:39:22;2.00;;;1.47;;
19024;SDS011;9645;51.448;6.260;2023-08-06T06:41:49;4.57;;;1.50;;
19024;SDS011;9645;51.448;6.260;2023-08-06T06:44:17;1.90;;;1.23;;
19024;SDS011;9645;51.448;6.260;2023-08-06T06:46:46;1.70;;;1.60;;
19024;SDS011;9645;51.448;6.260;2023-08-06T06:49:13;1.83;;;1.20;;
19024;SDS011;9645;51.448;6.260;2023-08-06T06:51:40;2.37;;;1.67;;
19024;SDS011;9645;51.448;6.260;2023-08-06T06:54:07;1.67;;;1.30;;
19024;SDS011;9645;51.448;6.260;2023-08-06T06:56:34;1.37;;;1.27;;
19024;SDS011;9645;51.448;6.260;2023-08-06T06:59:02;1.30;;;1.20;;
19024;SDS011;9645;51.448;6.260;2023-08-06T07:01:29;2.50;;;1.67;;
19024;SDS011;9645;51.448;6.260;2023-08-06T07:03:57;2.30;;;1.73;;
19024;SDS011;9645;51.448;6.260;2023-08-06T07:06:24;7.57;;;1.80;;
19024;SDS011;9645;51.448;6.260;2023-08-06T07:08:51;2.00;;;1.50;;
19024;SDS011;9645;51.448;6.260;2023-08-06T07:11:18;5.40;;;1.60;;
19024;SDS011;9645;51.448;6.260;2023-08-06T07:13:45;3.47;;;1.40;;
19024;SDS011;9645;51.448;6.260;2023-08-06T07:16:12;5.03;;;2.07;;
19024;SDS011;9645;51.448;6.260;2023-08-06T07:18:39;5.00;;;1.50;;
19024;SDS011;9645;51.448;6.260;2023-08-06T07:21:08;3.53;;;1.30;;
19024;SDS011;9645;51.448;6.260;2023-08-06T07:23:35;2.10;;;1.40;;
19024;SDS011;9645;51.448;6.260;2023-08-06T07:26:02;1.50;;;1.40;;
19024;SDS011;9645;51.448;6.260;2023-08-06T07:28:29;5.77;;;1.27;;
19024;SDS011;9645;51.448;6.260;2023-08-06T07:30:56;3.13;;;1.40;;
19024;SDS011;9645;51.448;6.260;2023-08-06T07:33:23;3.20;;;1.33;;
19024;SDS011;9645;51.448;6.260;2023-08-06T07:35:50;1.60;;;1.50;;
19024;SDS011;9645;51.448;6.260;2023-08-06T07:38:18;4.53;;;1.73;;
19024;SDS011;9645;51.448;6.260;2023-08-06T07:40:46;1.83;;;1.73;;
19024;SDS011;9645;51.448;6.260;2023-08-06T07:43:13;3.70;;;1.50;;
19024;SDS011;9645;51.448;6.260;2023-08-06T07:45:40;3.47;;;2.53;;
19024;SDS011;9645;51.448;6.260;2023-08-06T07:48:07;4.43;;;2.07;;
19024;SDS011;9645;51.448;6.260;2023-08-06T07:50:34;4.83;;;2.40;;
19024;SDS011;9645;51.448;6.260;2023-08-06T07:53:01;3.70;;;1.50;;
19024;SDS011;9645;51.448;6.260;2023-08-06T07:55:30;1.93;;;1.63;;
19024;SDS011;9645;51.448;6.260;2023-08-06T07:57:57;3.43;;;1.37;;
19024;SDS011;9645;51.448;6.260;2023-08-06T08:00:24;4.57;;;1.50;;
19024;SDS011;9645;51.448;6.260;2023-08-06T08:02:51;5.23;;;1.60;;
19024;SDS011;9645;51.448;6.260;2023-08-06T08:05:18;1.63;;;1.33;;
19024;SDS011;9645;51.448;6.260;2023-08-06T08:07:45;1.67;;;1.57;;
19024;SDS011;9645;51.448;6.260;2023-08-06T08:10:12;2.60;;;1.60;;
19024;SDS011;9645;51.448;6.260;2023-08-06T08:12:41;8.93;;;4.30;;
19024;SDS011;9645;51.448;6.260;2023-08-06T08:15:08;5.07;;;3.43;;
19024;SDS011;9645;51.448;6.260;2023-08-06T08:17:36;7.63;;;4.10;;
19024;SDS011;9645;51.448;6.260;2023-08-06T08:20:03;6.50;;;3.33;;
19024;SDS011;9645;51.448;6.260;2023-08-06T08:22:31;5.93;;;2.10;;
19024;SDS011;9645;51.448;6.260;2023-08-06T08:24:58;4.40;;;2.00;;
19024;SDS011;9645;51.448;6.260;2023-08-06T08:27:25;3.40;;;2.30;;
19024;SDS011;9645;51.448;6.260;2023-08-06T08:29:54;7.47;;;2.90;;
19024;SDS011;9645;51.448;6.260;2023-08-06T08:32:21;5.30;;;2.43;;
19024;SDS011;9645;51.448;6.260;2023-08-06T08:34:49;4.23;;;3.00;;
19024;SDS011;9645;51.448;6.260;2023-08-06T08:37:16;4.83;;;3.43;;
19024;SDS011;9645;51.448;6.260;2023-08-06T08:39:43;3.87;;;2.90;;
19024;SDS011;9645;51.448;6.260;2023-08-06T08:42:10;7.33;;;3.50;;
19024;SDS011;9645;51.448;6.260;2023-08-06T08:44:37;6.60;;;3.17;;
19024;SDS011;9645;51.448;6.260;2023-08-06T08:47:07;11.17;;;3.70;;
19024;SDS011;9645;51.448;6.260;2023-08-06T08:49:35;7.07;;;3.93;;
19024;SDS011;9645;51.448;6.260;2023-08-06T08:52:02;12.67;;;4.27;;
19024;SDS011;9645;51.448;6.260;2023-08-06T08:54:32;5.07;;;3.83;;
19024;SDS011;9645;51.448;6.260;2023-08-06T08:57:00;10.97;;;4.67;;
19024;SDS011;9645;51.448;6.260;2023-08-06T08:59:27;7.53;;;4.60;;
19024;SDS011;9645;51.448;6.260;2023-08-06T09:01:54;11.03;;;6.63;;
19024;SDS011;9645;51.448;6.260;2023-08-06T09:04:24;13.50;;;7.03;;
19024;SDS011;9645;51.448;6.260;2023-08-06T09:06:56;11.67;;;7.73;;
19024;SDS011;9645;51.448;6.260;2023-08-06T09:09:26;12.97;;;7.37;;
19024;SDS011;9645;51.448;6.260;2023-08-06T09:12:00;18.43;;;7.40;;
19024;SDS011;9645;51.448;6.260;2023-08-06T09:14:28;13.60;;;6.83;;
19024;SDS011;9645;51.448;6.260;2023-08-06T09:16:55;13.50;;;5.97;;
19024;SDS011;9645;51.448;6.260;2023-08-06T09:19:24;15.10;;;5.77;;
19024;SDS011;9645;51.448;6.260;2023-08-06T09:21:54;20.10;;;5.57;;
19024;SDS011;9645;51.448;6.260;2023-08-06T09:24:22;15.37;;;6.37;;
19024;SDS011;9645;51.448;6.260;2023-08-06T09:26:51;10.60;;;5.53;;
19024;SDS011;9645;51.448;6.260;2023-08-06T09:29:19;11.27;;;6.37;;
19024;SDS011;9645;51.448;6.260;2023-08-06T09:31:47;20.37;;;8.03;;
19024;SDS011;9645;51.448;6.260;2023-08-06T09:34:17;10.17;;;6.30;;
19024;SDS011;9645;51.448;6.260;2023-08-06T09:36:47;5.70;;;3.53;;
19024;SDS011;9645;51.448;6.260;2023-08-06T09:39:16;3.80;;;2.93;;
19024;SDS011;9645;51.448;6.260;2023-08-06T09:41:43;3.90;;;2.80;;
19024;SDS011;9645;51.448;6.260;2023-08-06T09:44:15;2.53;;;2.30;;
19024;SDS011;9645;51.448;6.260;2023-08-06T09:46:43;2.20;;;2.10;;
19024;SDS011;9645;51.448;6.260;2023-08-06T09:49:10;2.23;;;2.03;;
19024;SDS011;9645;51.448;6.260;2023-08-06T09:51:37;1.70;;;1.60;;
19024;SDS011;9645;51.448;6.260;2023-08-06T09:54:06;1.83;;;1.67;;
19024;SDS011;9645;51.448;6.260;2023-08-06T09:56:37;2.23;;;1.50;;
19024;SDS011;9645;51.448;6.260;2023-08-06T09:59:05;7.30;;;2.27;;
19024;SDS011;9645;51.448;6.260;2023-08-06T10:01:32;5.40;;;2.17;;
19024;SDS011;9645;51.448;6.260;2023-08-06T10:04:00;4.93;;;1.97;;
19024;SDS011;9645;51.448;6.260;2023-08-06T10:06:28;8.67;;;3.30;;
19024;SDS011;9645;51.448;6.260;2023-08-06T10:08:55;9.63;;;3.00;;
19024;SDS011;9645;51.448;6.260;2023-08-06T10:11:24;1.97;;;1.80;;
19024;SDS011;9645;51.448;6.260;2023-08-06T10:13:52;3.27;;;2.90;;
19024;SDS011;9645;51.448;6.260;2023-08-06T10:16:23;9.63;;;4.50;;
19024;SDS011;9645;51.448;6.260;2023-08-06T10:18:51;10.70;;;3.37;;
19024;SDS011;9645;51.448;6.260;2023-08-06T10:21:19;6.30;;;4.73;;
19024;SDS011;9645;51.448;6.260;2023-08-06T10:23:49;8.30;;;5.13;;
19024;SDS011;9645;51.448;6.260;2023-08-06T10:26:20;6.43;;;5.03;;
19024;SDS011;9645;51.448;6.260;2023-08-06T10:28:48;8.00;;;4.20;;
19024;SDS011;9645;51.448;6.260;2023-08-06T10:31:15;8.70;;;5.80;;
19024;SDS011;9645;51.448;6.260;2023-08-06T10:33:43;9.13;;;6.00;;
19024;SDS011;9645;51.448;6.260;2023-08-06T10:36:11;14.90;;;8.43;;
19024;SDS011;9645;51.448;6.260;2023-08-06T10:38:45;11.63;;;6.17;;
19024;SDS011;9645;51.448;6.260;2023-08-06T10:41:15;9.43;;;6.03;;
19024;SDS011;9645;51.448;6.260;2023-08-06T10:43:43;10.43;;;6.90;;
19024;SDS011;9645;51.448;6.260;2023-08-06T10:46:13;8.00;;;5.30;;
19024;SDS011;9645;51.448;6.260;2023-08-06T10:48:48;9.47;;;6.77;;
19024;SDS011;9645;51.448;6.260;2023-08-06T10:51:15;9.30;;;6.23;;
19024;SDS011;9645;51.448;6.260;2023-08-06T10:53:43;7.53;;;5.47;;
19024;SDS011;9645;51.448;6.260;2023-08-06T10:56:14;7.50;;;4.53;;
19024;SDS011;9645;51.448;6.260;2023-08-06T10:58:42;5.83;;;4.40;;
19024;SDS011;9645;51.448;6.260;2023-08-06T11:01:09;9.40;;;4.87;;
19024;SDS011;9645;51.448;6.260;2023-08-06T11:03:38;7.13;;;5.20;;
19024;SDS011;9645;51.448;6.260;2023-08-06T11:06:06;4.50;;;3.80;;
19024;SDS011;9645;51.448;6.260;2023-08-06T11:08:34;6.80;;;5.27;;
19024;SDS011;9645;51.448;6.260;2023-08-06T11:11:08;12.93;;;6.80;;
19024;SDS011;9645;51.448;6.260;2023-08-06T11:13:36;9.43;;;4.97;;
19024;SDS011;9645;51.448;6.260;2023-08-06T11:16:04;5.70;;;3.90;;
19024;SDS011;9645;51.448;6.260;2023-08-06T11:18:32;7.10;;;5.13;;
19024;SDS011;9645;51.448;6.260;2023-08-06T11:20:59;9.63;;;5.53;;
19024;SDS011;9645;51.448;6.260;2023-08-06T11:23:27;5.00;;;3.90;;
19024;SDS011;9645;51.448;6.260;2023-08-06T11:25:54;6.53;;;3.73;;
19024;SDS011;9645;51.448;6.260;2023-08-06T11:28:21;5.50;;;4.27;;
19024;SDS011;9645;51.448;6.260;2023-08-06T11:30:49;5.97;;;3.97;;
19024;SDS011;9645;51.448;6.260;2023-08-06T11:33:19;5.07;;;3.77;;
19024;SDS011;9645;51.448;6.260;2023-08-06T11:35:48;5.23;;;3.70;;
19024;SDS011;9645;51.448;6.260;2023-08-06T11:38:16;8.20;;;3.77;;
19024;SDS011;9645;51.448;6.260;2023-08-06T11:40:43;8.10;;;5.00;;
19024;SDS011;9645;51.448;6.260;2023-08-06T11:43:11;10.00;;;6.33;;
19024;SDS011;9645;51.448;6.260;2023-08-06T11:45:38;9.07;;;6.43;;
19024;SDS011;9645;51.448;6.260;2023-08-06T11:48:05;11.27;;;7.50;;
19024;SDS011;9645;51.448;6.260;2023-08-06T11:50:36;14.40;;;8.90;;
19024;SDS011;9645;51.448;6.260;2023-08-06T11:53:05;12.37;;;5.90;;
19024;SDS011;9645;51.448;6.260;2023-08-06T11:55:33;15.57;;;8.40;;
19024;SDS011;9645;51.448;6.260;2023-08-06T11:58:02;16.80;;;7.77;;
19024;SDS011;9645;51.448;6.260;2023-08-06T12:00:30;10.40;;;5.70;;
19024;SDS011;9645;51.448;6.260;2023-08-06T12:02:58;7.43;;;4.10;;
19024;SDS011;9645;51.448;6.260;2023-08-06T12:05:28;9.27;;;4.50;;
19024;SDS011;9645;51.448;6.260;2023-08-06T12:07:58;7.63;;;4.30;;
19024;SDS011;9645;51.448;6.260;2023-08-06T12:10:28;14.90;;;9.20;;
19024;SDS011;9645;51.448;6.260;2023-08-06T12:12:56;11.73;;;6.50;;
19024;SDS011;9645;51.448;6.260;2023-08-06T12:15:23;12.43;;;6.17;;
19024;SDS011;9645;51.448;6.260;2023-08-06T12:17:50;12.03;;;6.07;;
19024;SDS011;9645;51.448;6.260;2023-08-06T12:20:17;7.47;;;4.17;;
19024;SDS011;9645;51.448;6.260;2023-08-06T12:22:44;10.60;;;4.90;;
19024;SDS011;9645;51.448;6.260;2023-08-06T12:25:12;8.37;;;4.10;;
19024;SDS011;9645;51.448;6.260;2023-08-06T12:27:41;9.33;;;4.50;;
19024;SDS011;9645;51.448;6.260;2023-08-06T12:30:11;10.20;;;4.50;;
19024;SDS011;9645;51.448;6.260;2023-08-06T12:32:39;7.53;;;3.70;;
19024;SDS011;9645;51.448;6.260;2023-08-06T12:35:06;18.17;;;6.00;;
19024;SDS011;9645;51.448;6.260;2023-08-06T12:37:34;13.50;;;8.27;;
19024;SDS011;9645;51.448;6.260;2023-08-06T12:40:03;15.43;;;6.77;;
19024;SDS011;9645;51.448;6.260;2023-08-06T12:42:31;13.30;;;3.93;;
19024;SDS011;9645;51.448;6.260;2023-08-06T12:45:00;6.87;;;4.37;;
19024;SDS011;9645;51.448;6.260;2023-08-06T12:47:27;14.87;;;6.10;;
19024;SDS011;9645;51.448;6.260;2023-08-06T12:49:54;8.50;;;4.93;;
19024;SDS011;9645;51.448;6.260;2023-08-06T12:52:21;6.13;;;4.00;;
19024;SDS011;9645;51.448;6.260;2023-08-06T12:54:48;13.03;;;4.27;;
19024;SDS011;9645;51.448;6.260;2023-08-06T12:57:16;8.57;;;4.07;;
19024;SDS011;9645;51.448;6.260;2023-08-06T12:59:43;7.20;;;3.67;;
19024;SDS011;9645;51.448;6.260;2023-08-06T13:02:11;6.40;;;3.63;;
19024;SDS011;9645;51.448;6.260;2023-08-06T13:04:38;13.13;;;4.77;;
19024;SDS011;9645;51.448;6.260;2023-08-06T13:07:05;6.60;;;4.10;;
19024;SDS011;9645;51.448;6.260;2023-08-06T13:09:32;14.17;;;3.97;;
19024;SDS011;9645;51.448;6.260;2023-08-06T13:11:59;5.97;;;3.50;;
19024;SDS011;9645;51.448;6.260;2023-08-06T13:14:30;5.13;;;2.83;;
19024;SDS011;9645;51.448;6.260;2023-08-06T13:16:57;7.13;;;3.60;;
19024;SDS011;9645;51.448;6.260;2023-08-06T13:19:25;9.13;;;3.43;;
19024;SDS011;9645;51.448;6.260;2023-08-06T13:22:00;8.83;;;3.70;;
19024;SDS011;9645;51.448;6.260;2023-08-06T13:24:30;9.93;;;3.60;;
19024;SDS011;9645;51.448;6.260;2023-08-06T13:26:57;9.63;;;3.87;;
19024;SDS011;9645;51.448;6.260;2023-08-06T13:29:24;6.63;;;4.40;;
19024;SDS011;9645;51.448;6.260;2023-08-06T13:31:52;15.23;;;3.37;;
19024;SDS011;9645;51.448;6.260;2023-08-06T13:34:19;5.90;;;3.40;;
19024;SDS011;9645;51.448;6.260;2023-08-06T13:36:48;13.00;;;6.90;;
19024;SDS011;9645;51.448;6.260;2023-08-06T13:39:15;12.73;;;5.67;;
19024;SDS011;9645;51.448;6.260;2023-08-06T13:41:42;8.87;;;4.50;;
19024;SDS011;9645;51.448;6.260;2023-08-06T13:44:09;6.40;;;4.03;;
19024;SDS011;9645;51.448;6.260;2023-08-06T13:46:39;10.50;;;3.43;;
19024;SDS011;9645;51.448;6.260;2023-08-06T13:49:06;8.50;;;4.43;;
19024;SDS011;9645;51.448;6.260;2023-08-06T13:51:33;5.43;;;3.40;;
19024;SDS011;9645;51.448;6.260;2023-08-06T13:54:02;11.33;;;6.00;;
19024;SDS011;9645;51.448;6.260;2023-08-06T13:56:29;6.67;;;3.30;;
19024;SDS011;9645;51.448;6.260;2023-08-06T13:58:56;13.23;;;5.40;;
19024;SDS011;9645;51.448;6.260;2023-08-06T14:01:23;6.93;;;5.37;;
19024;SDS011;9645;51.448;6.260;2023-08-06T14:03:50;14.93;;;5.50;;
19024;SDS011;9645;51.448;6.260;2023-08-06T14:06:18;15.93;;;4.47;;
19024;SDS011;9645;51.448;6.260;2023-08-06T14:08:46;8.53;;;3.27;;
19024;SDS011;9645;51.448;6.260;2023-08-06T14:11:14;16.23;;;6.80;;
19024;SDS011;9645;51.448;6.260;2023-08-06T14:13:41;7.63;;;5.33;;
19024;SDS011;9645;51.448;6.260;2023-08-06T14:16:08;15.40;;;6.93;;
19024;SDS011;9645;51.448;6.260;2023-08-06T14:18:35;13.03;;;5.47;;
19024;SDS011;9645;51.448;6.260;2023-08-06T14:21:03;6.80;;;4.80;;
19024;SDS011;9645;51.448;6.260;2023-08-06T14:23:30;8.53;;;5.27;;
19024;SDS011;9645;51.448;6.260;2023-08-06T14:25:57;28.17;;;7.50;;
19024;SDS011;9645;51.448;6.260;2023-08-06T14:28:26;14.97;;;4.70;;
19024;SDS011;9645;51.448;6.260;2023-08-06T14:30:53;10.57;;;4.00;;
19024;SDS011;9645;51.448;6.260;2023-08-06T14:33:20;10.60;;;3.90;;
19024;SDS011;9645;51.448;6.260;2023-08-06T14:35:48;5.77;;;3.40;;
19024;SDS011;9645;51.448;6.260;2023-08-06T14:38:15;5.47;;;4.00;;
19024;SDS011;9645;51.448;6.260;2023-08-06T14:40:43;5.17;;;3.47;;
19024;SDS011;9645;51.448;6.260;2023-08-06T14:43:10;6.27;;;3.40;;
19024;SDS011;9645;51.448;6.260;2023-08-06T14:45:39;6.67;;;3.60;;
19024;SDS011;9645;51.448;6.260;2023-08-06T14:48:06;7.77;;;4.43;;
19024;SDS011;9645;51.448;6.260;2023-08-06T14:50:33;7.50;;;3.70;;
19024;SDS011;9645;51.448;6.260;2023-08-06T14:53:00;6.00;;;3.30;;
19024;SDS011;9645;51.448;6.260;2023-08-06T14:55:27;17.93;;;8.17;;
19024;SDS011;9645;51.448;6.260;2023-08-06T14:57:55;14.00;;;7.07;;
19024;SDS011;9645;51.448;6.260;2023-08-06T15:00:22;12.10;;;8.03;;
19024;SDS011;9645;51.448;6.260;2023-08-06T15:02:52;4.23;;;3.20;;